sensor_id;sensor_type;location;lat;lon;timestamp;P1;durP1;ratioP1;P2;durP2;ratioP2
37367;SDS011;23240;43.210;27.910;2022-09-02T10:14:11;20.30;;;8.00;;
37367;SDS011;23240;43.210;27.910;2022-09-02T10:19:20;20.42;;;7.88;;
37367;SDS011;23240;43.210;27.910;2022-09-02T10:30:28;19.75;;;7.60;;
37367;SDS011;23240;43.210;27.910;2022-09-02T10:38:06;22.75;;;8.60;;
37367;SDS011;23240;43.210;27.910;2022-09-02T10:40:52;19.88;;;8.20;;
37367;SDS011;23240;43.210;27.910;2022-09-02T10:46:08;21.33;;;8.10;;
37367;SDS011;23240;43.210;27.910;2022-09-02T10:56:44;19.65;;;6.88;;
37367;SDS011;23240;43.210;27.910;2022-09-02T10:59:19;18.70;;;7.38;;
37367;SDS011;23240;43.210;27.910;2022-09-02T11:02:08;16.73;;;7.15;;
37367;SDS011;23240;43.210;27.910;2022-09-02T11:04:48;23.17;;;7.15;;
37367;SDS011;23240;43.210;27.910;2022-09-02T11:07:22;18.92;;;7.28;;
37367;SDS011;23240;43.210;27.910;2022-09-02T11:10:10;17.60;;;8.05;;
37367;SDS011;23240;43.210;27.910;2022-09-02T11:12:46;19.75;;;7.10;;
37367;SDS011;23240;43.210;27.910;2022-09-02T11:18:26;24.67;;;8.32;;
37367;SDS011;23240;43.210;27.910;2022-09-02T11:28:48;21.83;;;7.70;;
37367;SDS011;23240;43.210;27.910;2022-09-02T11:36:50;27.50;;;7.85;;
37367;SDS011;23240;43.210;27.910;2022-09-02T11:39:28;26.67;;;7.70;;
37367;SDS011;23240;43.210;27.910;2022-09-02T11:47:39;22.33;;;7.00;;
37367;SDS011;23240;43.210;27.910;2022-09-02T11:55:41;20.83;;;6.90;;
37367;SDS011;23240;43.210;27.910;2022-09-02T11:58:28;26.67;;;7.90;;
37367;SDS011;23240;43.210;27.910;2022-09-02T12:03:26;20.83;;;7.50;;
37367;SDS011;23240;43.210;27.910;2022-09-02T12:06:08;22.02;;;7.80;;
37367;SDS011;23240;43.210;27.910;2022-09-02T12:08:59;20.33;;;7.95;;
37367;SDS011;23240;43.210;27.910;2022-09-02T12:14:59;21.98;;;7.32;;
37367;SDS011;23240;43.210;27.910;2022-09-02T12:20:11;18.02;;;6.82;;
37367;SDS011;23240;43.210;27.910;2022-09-02T12:23:01;18.77;;;6.40;;
37367;SDS011;23240;43.210;27.910;2022-09-02T12:33:33;19.23;;;7.70;;
37367;SDS011;23240;43.210;27.910;2022-09-02T12:36:00;18.38;;;6.20;;
37367;SDS011;23240;43.210;27.910;2022-09-02T12:43:46;18.52;;;7.13;;
37367;SDS011;23240;43.210;27.910;2022-09-02T12:48:58;20.25;;;7.72;;
37367;SDS011;23240;43.210;27.910;2022-09-02T12:54:26;15.48;;;6.55;;
37367;SDS011;23240;43.210;27.910;2022-09-02T12:57:20;19.38;;;6.70;;
37367;SDS011;23240;43.210;27.910;2022-09-02T13:00:03;15.70;;;6.43;;
37367;SDS011;23240;43.210;27.910;2022-09-02T13:08:06;17.95;;;6.32;;
37367;SDS011;23240;43.210;27.910;2022-09-02T13:33:07;9.18;;;4.13;;
37367;SDS011;23240;43.210;27.910;2022-09-02T13:35:38;9.85;;;4.47;;
37367;SDS011;23240;43.210;27.910;2022-09-02T13:38:07;10.77;;;5.80;;
37367;SDS011;23240;43.210;27.910;2022-09-02T13:40:35;10.93;;;4.80;;
37367;SDS011;23240;43.210;27.910;2022-09-02T13:43:23;7.60;;;4.20;;
37367;SDS011;23240;43.210;27.910;2022-09-02T13:45:49;6.50;;;4.20;;
37367;SDS011;23240;43.210;27.910;2022-09-02T13:48:21;10.32;;;4.90;;
37367;SDS011;23240;43.210;27.910;2022-09-02T13:50:49;9.93;;;5.00;;
37367;SDS011;23240;43.210;27.910;2022-09-02T13:56:04;11.90;;;5.15;;
37367;SDS011;23240;43.210;27.910;2022-09-02T13:58:36;15.18;;;6.60;;
37367;SDS011;23240;43.210;27.910;2022-09-02T14:03:55;14.82;;;5.90;;
37367;SDS011;23240;43.210;27.910;2022-09-02T14:06:23;14.40;;;6.68;;
37367;SDS011;23240;43.210;27.910;2022-09-02T14:08:56;18.83;;;7.20;;
37367;SDS011;23240;43.210;27.910;2022-09-02T14:11:24;18.88;;;7.47;;
37367;SDS011;23240;43.210;27.910;2022-09-02T14:13:51;17.65;;;7.38;;
37367;SDS011;23240;43.210;27.910;2022-09-02T14:16:34;21.20;;;8.07;;
37367;SDS011;23240;43.210;27.910;2022-09-02T14:19:04;18.42;;;7.60;;
37367;SDS011;23240;43.210;27.910;2022-09-02T14:21:33;18.65;;;7.47;;
37367;SDS011;23240;43.210;27.910;2022-09-02T14:24:00;16.38;;;7.55;;
37367;SDS011;23240;43.210;27.910;2022-09-02T14:26:35;20.67;;;9.15;;
37367;SDS011;23240;43.210;27.910;2022-09-02T14:29:05;21.27;;;8.63;;
37367;SDS011;23240;43.210;27.910;2022-09-02T14:31:32;22.42;;;7.70;;
37367;SDS011;23240;43.210;27.910;2022-09-02T14:33:59;21.48;;;8.50;;
37367;SDS011;23240;43.210;27.910;2022-09-02T14:36:30;21.10;;;9.48;;
37367;SDS011;23240;43.210;27.910;2022-09-02T14:39:19;20.95;;;8.65;;
37367;SDS011;23240;43.210;27.910;2022-09-02T14:41:51;22.35;;;7.80;;
37367;SDS011;23240;43.210;27.910;2022-09-02T14:44:28;17.40;;;6.40;;
37367;SDS011;23240;43.210;27.910;2022-09-02T14:47:11;12.20;;;5.88;;
37367;SDS011;23240;43.210;27.910;2022-09-02T14:49:39;18.63;;;6.28;;
37367;SDS011;23240;43.210;27.910;2022-09-02T14:52:16;15.60;;;6.28;;
37367;SDS011;23240;43.210;27.910;2022-09-02T14:54:46;19.67;;;7.05;;
37367;SDS011;23240;43.210;27.910;2022-09-02T14:57:27;20.10;;;7.32;;
37367;SDS011;23240;43.210;27.910;2022-09-02T14:59:55;17.15;;;6.40;;
37367;SDS011;23240;43.210;27.910;2022-09-02T15:04:51;18.73;;;6.50;;
37367;SDS011;23240;43.210;27.910;2022-09-02T15:07:17;20.65;;;6.35;;
37367;SDS011;23240;43.210;27.910;2022-09-02T15:09:43;16.45;;;6.28;;
37367;SDS011;23240;43.210;27.910;2022-09-02T15:12:09;18.08;;;6.45;;
37367;SDS011;23240;43.210;27.910;2022-09-02T15:14:36;17.42;;;6.18;;
37367;SDS011;23240;43.210;27.910;2022-09-02T15:17:03;16.73;;;6.47;;
37367;SDS011;23240;43.210;27.910;2022-09-02T15:19:31;15.90;;;6.55;;
37367;SDS011;23240;43.210;27.910;2022-09-02T15:21:57;16.38;;;5.50;;
37367;SDS011;23240;43.210;27.910;2022-09-02T15:24:23;14.38;;;4.93;;
37367;SDS011;23240;43.210;27.910;2022-09-02T15:26:48;16.35;;;4.40;;
37367;SDS011;23240;43.210;27.910;2022-09-02T15:29:14;19.00;;;5.32;;
37367;SDS011;23240;43.210;27.910;2022-09-02T15:31:39;27.17;;;10.68;;
37367;SDS011;23240;43.210;27.910;2022-09-02T15:34:05;19.52;;;7.20;;
37367;SDS011;23240;43.210;27.910;2022-09-02T15:36:30;18.65;;;6.00;;
37367;SDS011;23240;43.210;27.910;2022-09-02T15:38:56;16.80;;;6.20;;
37367;SDS011;23240;43.210;27.910;2022-09-02T15:41:22;19.85;;;5.70;;
37367;SDS011;23240;43.210;27.910;2022-09-02T15:43:49;17.45;;;6.05;;
37367;SDS011;23240;43.210;27.910;2022-09-02T15:48:54;15.68;;;5.40;;
37367;SDS011;23240;43.210;27.910;2022-09-02T15:51:21;18.13;;;6.13;;
37367;SDS011;23240;43.210;27.910;2022-09-02T15:54:09;20.23;;;5.97;;
37367;SDS011;23240;43.210;27.910;2022-09-02T15:56:36;17.17;;;5.85;;
37367;SDS011;23240;43.210;27.910;2022-09-02T15:59:09;19.95;;;5.97;;
37367;SDS011;23240;43.210;27.910;2022-09-02T16:01:37;20.10;;;5.90;;
37367;SDS011;23240;43.210;27.910;2022-09-02T16:04:08;18.08;;;5.82;;
37367;SDS011;23240;43.210;27.910;2022-09-02T16:06:35;19.13;;;5.78;;
37367;SDS011;23240;43.210;27.910;2022-09-02T16:09:07;22.95;;;6.10;;
37367;SDS011;23240;43.210;27.910;2022-09-02T16:11:37;33.58;;;11.07;;
37367;SDS011;23240;43.210;27.910;2022-09-02T16:14:04;27.63;;;8.55;;
37367;SDS011;23240;43.210;27.910;2022-09-02T16:16:30;20.05;;;6.18;;
37367;SDS011;23240;43.210;27.910;2022-09-02T16:18:56;19.85;;;6.47;;
37367;SDS011;23240;43.210;27.910;2022-09-02T16:21:21;16.70;;;4.70;;
37367;SDS011;23240;43.210;27.910;2022-09-02T16:23:47;15.23;;;4.15;;
37367;SDS011;23240;43.210;27.910;2022-09-02T16:28:53;21.45;;;5.10;;
37367;SDS011;23240;43.210;27.910;2022-09-02T16:31:20;16.83;;;4.90;;
37367;SDS011;23240;43.210;27.910;2022-09-02T16:33:55;17.85;;;4.28;;
37367;SDS011;23240;43.210;27.910;2022-09-02T16:36:23;12.82;;;4.60;;
37367;SDS011;23240;43.210;27.910;2022-09-02T16:38:49;16.80;;;4.45;;
37367;SDS011;23240;43.210;27.910;2022-09-02T16:43:52;14.20;;;5.75;;
37367;SDS011;23240;43.210;27.910;2022-09-02T16:46:18;23.73;;;7.18;;
37367;SDS011;23240;43.210;27.910;2022-09-02T16:48:44;21.88;;;7.95;;
37367;SDS011;23240;43.210;27.910;2022-09-02T16:51:09;26.73;;;10.75;;
37367;SDS011;23240;43.210;27.910;2022-09-02T16:53:34;26.95;;;11.43;;
37367;SDS011;23240;43.210;27.910;2022-09-02T16:56:01;33.55;;;13.73;;
37367;SDS011;23240;43.210;27.910;2022-09-02T16:58:27;31.20;;;11.93;;
37367;SDS011;23240;43.210;27.910;2022-09-02T17:00:54;25.75;;;10.55;;
37367;SDS011;23240;43.210;27.910;2022-09-02T17:03:20;24.98;;;8.63;;
37367;SDS011;23240;43.210;27.910;2022-09-02T17:05:46;27.20;;;9.70;;
37367;SDS011;23240;43.210;27.910;2022-09-02T17:08:13;29.02;;;10.95;;
37367;SDS011;23240;43.210;27.910;2022-09-02T17:10:39;25.48;;;9.00;;
37367;SDS011;23240;43.210;27.910;2022-09-02T17:13:05;27.08;;;9.88;;
37367;SDS011;23240;43.210;27.910;2022-09-02T17:15:30;26.98;;;9.63;;
37367;SDS011;23240;43.210;27.910;2022-09-02T17:17:56;25.77;;;9.20;;
37367;SDS011;23240;43.210;27.910;2022-09-02T17:20:22;29.48;;;10.25;;
37367;SDS011;23240;43.210;27.910;2022-09-02T17:22:48;28.83;;;10.20;;
37367;SDS011;23240;43.210;27.910;2022-09-02T17:25:14;25.67;;;9.65;;
37367;SDS011;23240;43.210;27.910;2022-09-02T17:27:40;27.42;;;9.85;;
37367;SDS011;23240;43.210;27.910;2022-09-02T17:30:08;28.25;;;10.18;;
37367;SDS011;23240;43.210;27.910;2022-09-02T17:32:38;26.98;;;9.90;;
37367;SDS011;23240;43.210;27.910;2022-09-02T17:35:04;25.45;;;9.38;;
37367;SDS011;23240;43.210;27.910;2022-09-02T17:37:32;28.10;;;10.15;;
37367;SDS011;23240;43.210;27.910;2022-09-02T17:40:04;29.55;;;9.73;;
37367;SDS011;23240;43.210;27.910;2022-09-02T17:42:52;25.08;;;10.35;;
37367;SDS011;23240;43.210;27.910;2022-09-02T17:45:17;27.27;;;9.93;;
37367;SDS011;23240;43.210;27.910;2022-09-02T17:47:42;24.75;;;9.68;;
37367;SDS011;23240;43.210;27.910;2022-09-02T17:50:08;25.92;;;11.75;;
37367;SDS011;23240;43.210;27.910;2022-09-02T17:52:33;24.85;;;11.85;;
37367;SDS011;23240;43.210;27.910;2022-09-02T17:54:59;25.35;;;12.30;;
37367;SDS011;23240;43.210;27.910;2022-09-02T18:00:15;26.17;;;12.02;;
37367;SDS011;23240;43.210;27.910;2022-09-02T18:05:50;29.90;;;8.20;;
37367;SDS011;23240;43.210;27.910;2022-09-02T18:11:06;33.33;;;10.02;;
37367;SDS011;23240;43.210;27.910;2022-09-02T18:35:22;17.38;;;7.05;;
37367;SDS011;23240;43.210;27.910;2022-09-02T18:38:47;19.63;;;8.10;;
37367;SDS011;23240;43.210;27.910;2022-09-02T18:41:20;20.45;;;9.25;;
37367;SDS011;23240;43.210;27.910;2022-09-02T18:47:32;26.17;;;10.23;;
37367;SDS011;23240;43.210;27.910;2022-09-02T18:50:06;29.65;;;11.07;;
37367;SDS011;23240;43.210;27.910;2022-09-02T18:52:32;27.17;;;11.32;;
37367;SDS011;23240;43.210;27.910;2022-09-02T18:57:29;32.40;;;12.00;;
37367;SDS011;23240;43.210;27.910;2022-09-02T19:00:02;29.75;;;12.02;;
37367;SDS011;23240;43.210;27.910;2022-09-02T19:05:11;31.58;;;15.43;;
37367;SDS011;23240;43.210;27.910;2022-09-02T19:07:42;33.97;;;13.93;;
37367;SDS011;23240;43.210;27.910;2022-09-02T19:10:28;39.30;;;14.80;;
37367;SDS011;23240;43.210;27.910;2022-09-02T19:12:54;37.42;;;15.45;;
37367;SDS011;23240;43.210;27.910;2022-09-02T19:15:21;34.78;;;14.88;;
37367;SDS011;23240;43.210;27.910;2022-09-02T19:17:48;36.65;;;14.18;;
37367;SDS011;23240;43.210;27.910;2022-09-02T19:20:13;33.63;;;14.15;;
37367;SDS011;23240;43.210;27.910;2022-09-02T19:22:40;36.83;;;14.82;;
37367;SDS011;23240;43.210;27.910;2022-09-02T19:25:11;38.28;;;15.00;;
37367;SDS011;23240;43.210;27.910;2022-09-02T19:27:39;30.35;;;13.75;;
37367;SDS011;23240;43.210;27.910;2022-09-02T19:30:07;32.28;;;13.85;;
37367;SDS011;23240;43.210;27.910;2022-09-02T19:32:36;37.25;;;14.63;;
37367;SDS011;23240;43.210;27.910;2022-09-02T19:35:05;34.42;;;14.18;;
37367;SDS011;23240;43.210;27.910;2022-09-02T19:37:34;40.10;;;14.30;;
37367;SDS011;23240;43.210;27.910;2022-09-02T19:40:04;30.58;;;13.07;;
37367;SDS011;23240;43.210;27.910;2022-09-02T19:42:33;29.63;;;13.95;;
37367;SDS011;23240;43.210;27.910;2022-09-02T19:44:59;29.77;;;12.60;;
37367;SDS011;23240;43.210;27.910;2022-09-02T19:47:24;26.67;;;11.13;;
37367;SDS011;23240;43.210;27.910;2022-09-02T19:49:50;22.08;;;10.82;;
37367;SDS011;23240;43.210;27.910;2022-09-02T19:52:16;23.33;;;10.73;;
37367;SDS011;23240;43.210;27.910;2022-09-02T19:54:44;21.15;;;10.35;;
37367;SDS011;23240;43.210;27.910;2022-09-02T19:57:11;21.60;;;9.55;;
37367;SDS011;23240;43.210;27.910;2022-09-02T19:59:36;20.85;;;9.90;;
37367;SDS011;23240;43.210;27.910;2022-09-02T20:02:02;22.45;;;11.40;;
37367;SDS011;23240;43.210;27.910;2022-09-02T20:04:28;28.00;;;14.80;;
37367;SDS011;23240;43.210;27.910;2022-09-02T20:06:55;21.00;;;8.85;;
37367;SDS011;23240;43.210;27.910;2022-09-02T20:09:22;14.90;;;5.38;;
37367;SDS011;23240;43.210;27.910;2022-09-02T20:11:49;10.70;;;5.43;;
37367;SDS011;23240;43.210;27.910;2022-09-02T20:14:15;13.23;;;5.80;;
37367;SDS011;23240;43.210;27.910;2022-09-02T20:16:40;19.13;;;6.28;;
37367;SDS011;23240;43.210;27.910;2022-09-02T20:19:06;19.67;;;7.57;;
37367;SDS011;23240;43.210;27.910;2022-09-02T20:21:36;15.88;;;6.60;;
37367;SDS011;23240;43.210;27.910;2022-09-02T20:24:07;19.87;;;7.10;;
37367;SDS011;23240;43.210;27.910;2022-09-02T20:32:14;20.92;;;8.13;;
37367;SDS011;23240;43.210;27.910;2022-09-02T20:37:44;19.77;;;7.80;;
37367;SDS011;23240;43.210;27.910;2022-09-02T20:45:57;24.35;;;8.40;;
37367;SDS011;23240;43.210;27.910;2022-09-02T20:48:43;23.25;;;7.63;;
37367;SDS011;23240;43.210;27.910;2022-09-02T21:01:41;21.25;;;5.97;;
37367;SDS011;23240;43.210;27.910;2022-09-02T21:06:37;17.23;;;4.72;;
37367;SDS011;23240;43.210;27.910;2022-09-02T21:17:35;16.50;;;4.22;;
37367;SDS011;23240;43.210;27.910;2022-09-02T21:20:05;16.95;;;4.63;;
37367;SDS011;23240;43.210;27.910;2022-09-02T21:22:57;20.48;;;4.50;;
37367;SDS011;23240;43.210;27.910;2022-09-02T21:25:31;21.05;;;5.05;;
37367;SDS011;23240;43.210;27.910;2022-09-02T21:30:37;13.40;;;4.10;;
37367;SDS011;23240;43.210;27.910;2022-09-02T21:33:05;18.15;;;4.55;;
37367;SDS011;23240;43.210;27.910;2022-09-02T21:35:37;18.20;;;4.40;;
37367;SDS011;23240;43.210;27.910;2022-09-02T21:38:11;26.17;;;5.70;;
37367;SDS011;23240;43.210;27.910;2022-09-02T21:40:47;21.23;;;5.82;;
37367;SDS011;23240;43.210;27.910;2022-09-02T21:49:00;29.55;;;7.78;;
37367;SDS011;23240;43.210;27.910;2022-09-02T21:51:55;24.25;;;7.53;;
37367;SDS011;23240;43.210;27.910;2022-09-02T22:00:21;21.65;;;7.88;;
37367;SDS011;23240;43.210;27.910;2022-09-02T22:03:01;30.98;;;9.05;;
37367;SDS011;23240;43.210;27.910;2022-09-02T22:13:34;26.25;;;9.15;;
37367;SDS011;23240;43.210;27.910;2022-09-02T22:19:00;31.13;;;8.00;;
37367;SDS011;23240;43.210;27.910;2022-09-02T22:21:42;26.67;;;8.60;;
37367;SDS011;23240;43.210;27.910;2022-09-02T22:24:22;26.73;;;8.77;;
37367;SDS011;23240;43.210;27.910;2022-09-02T22:32:00;26.08;;;8.32;;
37367;SDS011;23240;43.210;27.910;2022-09-02T22:34:29;27.70;;;9.45;;
37367;SDS011;23240;43.210;27.910;2022-09-02T22:37:02;28.27;;;9.70;;
37367;SDS011;23240;43.210;27.910;2022-09-02T22:39:37;29.70;;;9.35;;
37367;SDS011;23240;43.210;27.910;2022-09-02T22:42:15;24.02;;;9.30;;
37367;SDS011;23240;43.210;27.910;2022-09-02T22:44:52;28.17;;;9.70;;
37367;SDS011;23240;43.210;27.910;2022-09-02T22:47:57;31.52;;;9.77;;
37367;SDS011;23240;43.210;27.910;2022-09-02T22:50:45;26.50;;;10.93;;
37367;SDS011;23240;43.210;27.910;2022-09-02T22:53:34;25.00;;;10.52;;
37367;SDS011;23240;43.210;27.910;2022-09-02T22:56:00;24.70;;;10.60;;
37367;SDS011;23240;43.210;27.910;2022-09-02T23:01:33;23.50;;;10.15;;
37367;SDS011;23240;43.210;27.910;2022-09-02T23:06:57;25.63;;;8.85;;
37367;SDS011;23240;43.210;27.910;2022-09-02T23:09:32;25.17;;;7.63;;
37367;SDS011;23240;43.210;27.910;2022-09-02T23:12:05;23.65;;;7.93;;
37367;SDS011;23240;43.210;27.910;2022-09-02T23:19:50;22.85;;;7.30;;
37367;SDS011;23240;43.210;27.910;2022-09-02T23:25:22;22.20;;;7.47;;
37367;SDS011;23240;43.210;27.910;2022-09-02T23:30:46;22.73;;;7.15;;
37367;SDS011;23240;43.210;27.910;2022-09-02T23:36:20;19.77;;;7.63;;
37367;SDS011;23240;43.210;27.910;2022-09-02T23:39:02;27.80;;;7.07;;
37367;SDS011;23240;43.210;27.910;2022-09-02T23:41:34;22.70;;;7.10;;
37367;SDS011;23240;43.210;27.910;2022-09-02T23:44:01;22.58;;;7.38;;
37367;SDS011;23240;43.210;27.910;2022-09-02T23:51:31;24.02;;;7.10;;
